Nantucket, MA

9:49 PM EST on December 24, 2014 (GMT -0500)
Martha's Vineyard | Change Station
CLOSE
Current Station
Airport
Location: Martha's Vineyard,
Elevation: 69 ft
Nearby Weather Stations
Active Advisory: Wind Advisory

Elev 69 ft 41.39 °N, 70.61 °W | Updated 11 minutes ago

Rain
Rain
57 °F
Feels Like 57 °F
N
21
Wind Variable Wind from South
Gusts 32 mph

Today
High -- | Low -- °F
--% Chance of Precip.
Yesterday
High -- | Low -- °F
Precip. -- in
7:04 AM 4:16 PM
Waxing Crescent, 12% visible
Pressure 29.69 in
Visibility 2.5 miles
Clouds Overcast 200 ft
Dew Point 56 °F
Humidity 96%
Rainfall 0.54 in
Snow Depth Not available.
UV 0 out of 12
Pollen .10 out of 12
Air Quality Not available.
Flu Activity Not available.
SPECI KMVY 250238Z AUTO 18018G28KT 2 1/2SM +RA BR OVC002 14/13 A2969 RMK AO2 PK WND 17028/0231 P0014 T01390133

More Conditions Fewer Conditions

Pressure 29.69 in
Visibility 2.5 miles
Clouds Overcast 200 ft
Dew Point 56 °F
Humidity 96%
Rainfall 0.54 in
Snow Depth Not available.
UV 0 out of 12
Pollen .10 out of 12
Air Quality Not available.
Flu Activity Not available.
SPECI KMVY 250238Z AUTO 18018G28KT 2 1/2SM +RA BR OVC002 14/13 A2969 RMK AO2 PK WND 17028/0231 P0014 T01390133

More Conditions Fewer Conditions

10-Day Weather Forecast

Almanac

Astronomy

Dec. 24, 2014 Rise Set
Actual Time
Civil Twilight
Nautical Twilight
Astronomical Twilight
Moon
Length of Visible Light
Length of Day
Tomorrow will be .
, % of the Moon is Illuminated

Today's Extremes

State Highs State Lows

Community

WunderPhotos

Upload Photos

1,780,215 photos uploaded!

WunderBlogs® & News

Nearby

Air Quality

  Air Quality AQ Index Pollutant
Not available.

Snow Depth

Station Depth Elevation

Earthquake Activity

City Distance Mag. Time & Date
Minimum magnitude displayed is 2.5.

Coastal Water Temperatures

Place Temperature

Nearby Weather Stations